Time;durP1;ratioP1;P1;durP2;ratioP2;P2;SDS_P1;SDS_P2;PMS_P1;PMS_P2;Temp;Humidity;BMP_temperature;BMP_pressure;BME280_temperature;BME280_humidity;BME280_pressure;Samples;Min_cycle;Max_cycle;Signal;HPM_P1;HPM_P2
2022/10/19 00:01:00;;;;;;;5.05;4.65;;;15.00;99.90;;;;;;5074297;28;20256;-76
2022/10/19 00:03:27;;;;;;;8.25;4.57;;;14.90;99.90;;;;;;5070134;28;20582;-76
2022/10/19 00:05:55;;;;;;;4.78;4.38;;;14.90;99.90;;;;;;5073876;28;20236;-76
2022/10/19 00:08:23;;;;;;;4.80;4.40;;;14.80;99.90;;;;;;5075808;28;20198;-75
2022/10/19 00:10:50;;;;;;;4.85;4.45;;;14.80;99.90;;;;;;5071867;28;20290;-76
2022/10/19 00:13:17;;;;;;;4.88;4.47;;;14.80;99.90;;;;;;5072813;28;20198;-76
2022/10/19 00:15:45;;;;;;;4.75;4.35;;;14.80;99.90;;;;;;5077318;28;20226;-76
2022/10/19 00:18:12;;;;;;;4.88;4.40;;;14.70;99.90;;;;;;5076507;28;20217;-76
2022/10/19 00:20:39;;;;;;;5.70;4.70;;;14.70;99.90;;;;;;5071215;28;20225;-76
2022/10/19 00:23:07;;;;;;;4.97;4.53;;;14.70;99.90;;;;;;5073542;28;20196;-76
2022/10/19 00:25:35;;;;;;;4.60;4.20;;;14.70;99.90;;;;;;5066964;28;20232;-75
2022/10/19 00:28:02;;;;;;;4.97;4.57;;;14.70;99.90;;;;;;5077970;28;20312;-76
2022/10/19 00:30:29;;;;;;;4.70;4.30;;;14.60;99.90;;;;;;5076494;28;20217;-76
2022/10/19 00:32:57;;;;;;;4.13;3.83;;;14.60;99.90;;;;;;5068936;28;20210;-76
2022/10/19 00:35:24;;;;;;;4.68;4.28;;;14.60;99.90;;;;;;5071915;28;20229;-76
2022/10/19 00:37:51;;;;;;;5.30;4.38;;;14.60;99.90;;;;;;5072164;28;20202;-75
2022/10/19 00:40:19;;;;;;;4.82;4.43;;;14.60;99.90;;;;;;5075758;28;20222;-76
2022/10/19 00:42:46;;;;;;;5.00;4.53;;;14.60;99.90;;;;;;5071912;28;20198;-76
2022/10/19 00:45:16;;;;;;;5.22;4.78;;;14.50;99.90;;;;;;5071691;28;20218;-75
2022/10/19 00:47:44;;;;;;;5.00;4.60;;;14.50;99.90;;;;;;5073959;28;20611;-77
2022/10/19 00:50:16;;;;;;;4.53;4.13;;;14.50;99.90;;;;;;5074563;28;20230;-76
2022/10/19 00:52:43;;;;;;;4.90;4.50;;;14.50;99.90;;;;;;5073653;28;20230;-76
2022/10/19 00:55:11;;;;;;;4.70;4.30;;;14.50;99.90;;;;;;5070959;28;20229;-76
2022/10/19 00:57:40;;;;;;;4.82;4.47;;;14.50;99.90;;;;;;5069839;28;20199;-76
2022/10/19 01:00:09;;;;;;;5.13;4.63;;;14.50;99.90;;;;;;5072636;28;20536;-76
2022/10/19 01:02:36;;;;;;;4.50;4.10;;;14.50;99.90;;;;;;5072347;28;20205;-75
2022/10/19 01:05:04;;;;;;;5.22;4.70;;;14.50;99.90;;;;;;5074562;28;20274;-76
2022/10/19 01:07:32;;;;;;;5.25;4.85;;;14.40;99.90;;;;;;5076932;28;20675;-76
2022/10/19 01:10:00;;;;;;;5.47;4.97;;;14.40;99.90;;;;;;5076219;28;20214;-76
2022/10/19 01:12:43;;;;;;;4.90;4.50;;;14.40;99.90;;;;;;5073352;28;20213;-76
2022/10/19 01:15:20;;;;;;;5.38;4.88;;;14.30;99.90;;;;;;5077492;28;20225;-76
2022/10/19 01:17:57;;;;;;;4.70;4.30;;;14.30;99.90;;;;;;5069954;28;20572;-75
2022/10/19 01:21:03;;;;;;;4.70;4.30;;;14.30;99.90;;;;;;5071342;28;20426;-76
2022/10/19 01:24:01;;;;;;;5.00;4.47;;;14.30;99.90;;;;;;5041042;28;20202;-76
2022/10/19 01:27:04;;;;;;;4.60;4.25;;;14.30;99.90;;;;;;5039365;28;20227;-75
2022/10/19 01:29:51;;;;;;;4.35;4.05;;;14.30;99.90;;;;;;5068023;28;20193;-75
2022/10/19 01:32:23;;;;;;;4.68;4.28;;;14.30;99.90;;;;;;5079436;28;20214;-75
2022/10/19 01:35:05;;;;;;;4.53;4.13;;;14.30;99.90;;;;;;5078494;28;20228;-75
2022/10/19 01:37:40;;;;;;;4.63;4.22;;;14.30;99.90;;;;;;5074022;28;20930;-75
2022/10/19 01:40:12;;;;;;;5.13;4.68;;;14.30;99.90;;;;;;5070158;28;20228;-76
2022/10/19 01:42:45;;;;;;;5.07;4.68;;;14.30;99.90;;;;;;5073575;28;20206;-75
2022/10/19 01:45:19;;;;;;;5.90;5.03;;;14.30;99.90;;;;;;5071248;28;20785;-75
2022/10/19 01:47:51;;;;;;;5.30;4.80;;;14.30;99.90;;;;;;5072666;28;20202;-76
2022/10/19 01:50:24;;;;;;;4.90;4.50;;;14.30;99.90;;;;;;5071458;28;20222;-76
2022/10/19 01:52:54;;;;;;;4.63;4.22;;;14.30;99.90;;;;;;5068627;28;20602;-76
2022/10/19 01:55:24;;;;;;;5.78;5.28;;;14.30;99.90;;;;;;5070999;28;20232;-76
2022/10/19 01:57:56;;;;;;;4.93;4.53;;;14.20;99.90;;;;;;5076677;28;20197;-76
2022/10/19 02:00:26;;;;;;;5.57;4.80;;;14.20;99.90;;;;;;5063620;28;20890;-76
2022/10/19 02:02:55;;;;;;;4.82;4.43;;;14.20;99.90;;;;;;5067358;28;20195;-75
2022/10/19 02:05:28;;;;;;;5.25;4.85;;;14.20;99.90;;;;;;5070059;28;20229;-76
2022/10/19 02:08:00;;;;;;;5.05;4.50;;;14.10;99.90;;;;;;5098220;22;20221;-79
2022/10/19 02:10:29;;;;;;;5.00;4.60;;;14.10;99.90;;;;;;5087441;28;20225;-79
2022/10/19 02:12:58;;;;;;;5.25;4.75;;;14.10;99.90;;;;;;5089112;28;20729;-79
2022/10/19 02:15:29;;;;;;;4.70;4.30;;;14.10;99.90;;;;;;5087190;28;20217;-79
2022/10/19 02:17:59;;;;;;;4.57;4.28;;;14.10;99.90;;;;;;5084868;28;20259;-77
2022/10/19 02:20:28;;;;;;;5.18;4.68;;;14.00;99.90;;;;;;5085627;28;20225;-77
2022/10/19 02:22:56;;;;;;;4.35;3.95;;;14.00;99.90;;;;;;5088643;28;20201;-77
2022/10/19 02:25:24;;;;;;;4.40;4.07;;;14.00;99.90;;;;;;5086939;27;20219;-76
2022/10/19 02:27:51;;;;;;;4.60;4.20;;;13.90;99.90;;;;;;5087627;28;20213;-77
2022/10/19 02:30:21;;;;;;;5.20;4.72;;;13.90;99.90;;;;;;5090021;28;20220;-76
2022/10/19 02:32:50;;;;;;;4.45;4.05;;;13.90;99.90;;;;;;5090110;28;20260;-77
2022/10/19 02:35:18;;;;;;;4.65;4.25;;;13.90;99.90;;;;;;5084619;27;20885;-77
2022/10/19 02:37:48;;;;;;;4.63;4.22;;;13.90;99.90;;;;;;5090957;28;20213;-79
2022/10/19 02:40:16;;;;;;;4.95;4.50;;;13.90;99.90;;;;;;5084571;28;20299;-79
2022/10/19 02:42:48;;;;;;;4.63;4.22;;;13.90;99.90;;;;;;5084768;28;20205;-79
2022/10/19 02:45:22;;;;;;;4.93;4.53;;;13.90;99.90;;;;;;5087114;27;20217;-76
2022/10/19 02:47:55;;;;;;;5.68;5.18;;;13.80;99.90;;;;;;5082472;28;20721;-77
2022/10/19 02:50:22;;;;;;;5.50;4.70;;;13.70;99.90;;;;;;5088691;28;20586;-77
2022/10/19 02:52:50;;;;;;;4.85;4.35;;;13.70;99.90;;;;;;5085881;28;20244;-77
2022/10/19 02:55:17;;;;;;;5.00;4.50;;;13.60;99.90;;;;;;5087350;28;20694;-79
2022/10/19 02:57:45;;;;;;;4.60;4.20;;;13.60;99.90;;;;;;5082725;28;20222;-79
2022/10/19 03:00:13;;;;;;;5.03;4.50;;;13.60;99.90;;;;;;5085208;28;20589;-79
2022/10/19 03:02:40;;;;;;;5.07;4.57;;;13.70;99.90;;;;;;5084066;28;20221;-78
2022/10/19 03:05:10;;;;;;;4.20;3.90;;;13.70;99.90;;;;;;5089414;28;20224;-79
2022/10/19 03:07:38;;;;;;;4.40;4.10;;;13.70;99.90;;;;;;5084614;28;20237;-76
2022/10/19 03:10:06;;;;;;;5.05;4.55;;;13.60;99.90;;;;;;5086222;28;20225;-77
2022/10/19 03:12:33;;;;;;;4.65;4.25;;;13.60;99.90;;;;;;5087740;28;20709;-77
2022/10/19 03:15:00;;;;;;;4.75;4.35;;;13.60;99.90;;;;;;5089636;28;20220;-77
2022/10/19 03:17:29;;;;;;;5.03;3.80;;;13.60;99.90;;;;;;5092447;28;20212;-76
2022/10/19 03:19:56;;;;;;;4.50;4.10;;;13.60;99.90;;;;;;5085580;28;20214;-77
2022/10/19 03:22:25;;;;;;;4.35;4.05;;;13.60;99.90;;;;;;5086529;28;20189;-76
2022/10/19 03:24:53;;;;;;;4.50;4.10;;;13.60;99.90;;;;;;5091014;28;20229;-76
2022/10/19 03:27:20;;;;;;;5.50;4.40;;;13.60;99.90;;;;;;5088483;28;20221;-78
2022/10/19 03:29:48;;;;;;;4.55;4.15;;;13.60;99.90;;;;;;5085992;28;20249;-76
2022/10/19 03:32:15;;;;;;;4.53;4.13;;;13.60;99.90;;;;;;5088347;28;20213;-77
2022/10/19 03:34:43;;;;;;;4.75;4.35;;;13.60;99.90;;;;;;5086028;27;20198;-77
2022/10/19 03:37:12;;;;;;;4.30;3.90;;;13.60;99.90;;;;;;5086746;28;20689;-77
2022/10/19 03:39:40;;;;;;;5.22;4.60;;;13.70;99.90;;;;;;5075971;22;20889;-72
2022/10/19 03:42:07;;;;;;;4.32;3.92;;;13.60;99.90;;;;;;5061922;28;20203;-72
2022/10/19 03:44:34;;;;;;;4.50;4.10;;;13.70;99.90;;;;;;5064498;28;20558;-71
2022/10/19 03:47:01;;;;;;;4.20;3.90;;;13.70;99.90;;;;;;5063086;28;20215;-71
2022/10/19 03:49:28;;;;;;;4.25;3.95;;;13.70;99.90;;;;;;5055453;28;20213;-71
2022/10/19 03:51:55;;;;;;;4.22;3.83;;;13.70;99.90;;;;;;5049324;28;20199;-71
2022/10/19 03:54:23;;;;;;;3.97;3.67;;;13.60;99.90;;;;;;5050421;28;20225;-71
2022/10/19 03:56:51;;;;;;;3.90;3.60;;;13.60;99.90;;;;;;5049082;28;20234;-72
2022/10/19 03:59:18;;;;;;;4.28;3.97;;;13.50;99.90;;;;;;5049795;28;20202;-71
2022/10/19 04:01:46;;;;;;;4.50;4.10;;;13.50;99.90;;;;;;5048771;28;20215;-72
2022/10/19 04:04:15;;;;;;;4.63;4.20;;;13.50;99.90;;;;;;5048029;28;20601;-72
2022/10/19 04:06:45;;;;;;;4.40;4.00;;;13.50;99.90;;;;;;5055413;28;20214;-71
2022/10/19 04:09:13;;;;;;;4.78;4.25;;;13.50;99.90;;;;;;5049360;28;20222;-71
2022/10/19 04:11:41;;;;;;;6.00;4.05;;;13.40;99.90;;;;;;5048607;28;20222;-71
2022/10/19 04:14:12;;;;;;;4.75;4.22;;;13.30;99.90;;;;;;5046750;28;20215;-71
2022/10/19 04:16:39;;;;;;;5.03;4.53;;;13.20;99.90;;;;;;5044764;28;20229;-71
2022/10/19 04:19:06;;;;;;;4.70;4.30;;;13.20;99.90;;;;;;5050066;28;20199;-71
2022/10/19 04:21:35;;;;;;;4.55;4.15;;;13.10;99.90;;;;;;5048687;28;20223;-71
2022/10/19 04:24:05;;;;;;;4.93;4.53;;;13.10;99.90;;;;;;5047575;28;20192;-71
2022/10/19 04:26:32;;;;;;;4.68;4.18;;;13.10;99.90;;;;;;5050763;28;20223;-72
2022/10/19 04:29:00;;;;;;;5.00;4.60;;;13.10;99.90;;;;;;5050080;28;20206;-72
2022/10/19 04:31:29;;;;;;;4.57;4.10;;;13.10;99.90;;;;;;5048101;28;20223;-71
2022/10/19 04:33:56;;;;;;;4.45;4.13;;;13.10;99.90;;;;;;5048629;28;20223;-71
2022/10/19 04:36:24;;;;;;;5.15;4.18;;;13.00;99.90;;;;;;5049861;28;20829;-71
2022/10/19 04:38:51;;;;;;;4.50;4.05;;;13.10;99.90;;;;;;5051458;28;20202;-72
2022/10/19 04:41:21;;;;;;;4.18;3.72;;;13.10;99.90;;;;;;5066629;28;20218;-72
2022/10/19 04:43:48;;;;;;;5.05;4.10;;;13.10;99.90;;;;;;5073031;28;20210;-71
2022/10/19 04:46:18;;;;;;;4.90;4.40;;;13.10;99.90;;;;;;5079152;28;20443;-71
2022/10/19 04:48:48;;;;;;;4.15;3.75;;;13.10;99.90;;;;;;5071546;28;20247;-72
2022/10/19 04:51:16;;;;;;;4.60;4.20;;;13.10;99.90;;;;;;5066196;28;20210;-72
2022/10/19 04:53:44;;;;;;;4.28;3.85;;;13.00;99.90;;;;;;5067737;28;20222;-71
2022/10/19 04:56:13;;;;;;;3.63;3.33;;;13.00;99.90;;;;;;5069502;28;20217;-72
2022/10/19 04:58:40;;;;;;;4.32;4.00;;;13.00;99.90;;;;;;5070139;28;20210;-71
2022/10/19 05:01:09;;;;;;;4.10;3.70;;;13.00;99.90;;;;;;5068017;28;20230;-72
2022/10/19 05:03:36;;;;;;;4.05;3.75;;;13.00;99.90;;;;;;5067944;28;20664;-72
2022/10/19 05:06:05;;;;;;;6.40;4.20;;;13.00;99.90;;;;;;5072709;28;20222;-71
2022/10/19 05:08:33;;;;;;;4.45;4.05;;;13.00;99.90;;;;;;5069570;28;20218;-71
2022/10/19 05:11:02;;;;;;;4.68;3.95;;;13.00;99.90;;;;;;5067555;28;20219;-72
2022/10/19 05:13:29;;;;;;;4.13;3.72;;;12.90;99.90;;;;;;5069350;28;20299;-72
2022/10/19 05:15:57;;;;;;;4.00;3.70;;;12.90;99.90;;;;;;5068261;28;20246;-72
2022/10/19 05:18:24;;;;;;;4.57;4.18;;;12.90;99.90;;;;;;5068154;28;20221;-72
2022/10/19 05:20:51;;;;;;;4.00;3.63;;;12.90;99.90;;;;;;5067175;28;20716;-72
2022/10/19 05:23:20;;;;;;;3.90;3.60;;;12.90;99.90;;;;;;5068739;28;20292;-71
2022/10/19 05:25:47;;;;;;;4.47;3.88;;;12.90;99.90;;;;;;5067941;28;20226;-71
2022/10/19 05:28:14;;;;;;;4.07;3.78;;;12.90;99.90;;;;;;5068841;28;20233;-72
2022/10/19 05:30:41;;;;;;;3.97;3.63;;;12.90;99.90;;;;;;5069076;28;20704;-71
2022/10/19 05:33:08;;;;;;;3.58;3.28;;;12.90;99.90;;;;;;5066611;28;20229;-71
2022/10/19 05:35:35;;;;;;;3.78;3.47;;;12.90;99.90;;;;;;5074301;28;20222;-72
2022/10/19 05:38:02;;;;;;;4.50;3.50;;;12.90;99.90;;;;;;5070750;28;20222;-71
2022/10/19 05:40:30;;;;;;;4.10;3.70;;;12.90;99.90;;;;;;5067398;28;20218;-71
2022/10/19 05:42:57;;;;;;;4.18;3.78;;;12.90;99.90;;;;;;5058729;28;20677;-73
2022/10/19 05:45:24;;;;;;;4.15;3.80;;;12.90;99.90;;;;;;5063539;28;20244;-72
2022/10/19 05:47:51;;;;;;;4.03;3.72;;;12.90;99.90;;;;;;5063086;28;20214;-72
2022/10/19 05:50:18;;;;;;;4.20;3.80;;;12.90;99.90;;;;;;5061860;28;20415;-72
2022/10/19 05:52:46;;;;;;;4.25;3.88;;;12.90;99.90;;;;;;5059643;28;20775;-72
2022/10/19 05:55:13;;;;;;;4.30;4.00;;;12.90;99.90;;;;;;5066035;28;20748;-72
2022/10/19 05:57:41;;;;;;;3.90;3.60;;;12.90;99.90;;;;;;5065463;28;20252;-71
2022/10/19 06:00:10;;;;;;;3.90;3.60;;;13.00;99.90;;;;;;5064698;28;20703;-71
2022/10/19 06:02:37;;;;;;;3.90;3.60;;;13.00;99.90;;;;;;5062028;28;20199;-71
2022/10/19 06:05:04;;;;;;;4.35;3.70;;;13.00;99.90;;;;;;5063351;28;20218;-71
2022/10/19 06:07:31;;;;;;;3.90;3.60;;;13.00;99.90;;;;;;5064336;28;20226;-71
2022/10/19 06:09:58;;;;;;;3.70;3.40;;;13.00;99.90;;;;;;5062071;28;20246;-71
2022/10/19 06:12:25;;;;;;;4.00;3.70;;;13.00;99.90;;;;;;5063292;28;20194;-72
2022/10/19 06:14:54;;;;;;;4.22;3.83;;;13.00;99.90;;;;;;5069275;28;20571;-71
2022/10/19 06:17:21;;;;;;;4.10;3.80;;;13.00;99.90;;;;;;5061131;28;20218;-72
2022/10/19 06:19:48;;;;;;;3.50;3.25;;;13.00;99.90;;;;;;5062610;28;20245;-72
2022/10/19 06:22:15;;;;;;;4.07;3.67;;;13.00;99.90;;;;;;5062129;28;20688;-71
2022/10/19 06:24:42;;;;;;;6.30;3.85;;;13.00;99.90;;;;;;5061864;28;20194;-71
2022/10/19 06:27:09;;;;;;;5.45;4.07;;;13.00;99.90;;;;;;5064738;28;20214;-71
2022/10/19 06:29:36;;;;;;;3.95;3.63;;;13.00;99.90;;;;;;5063432;28;20201;-71
2022/10/19 06:32:05;;;;;;;3.88;3.58;;;13.00;99.90;;;;;;5061471;28;20396;-71
2022/10/19 06:34:32;;;;;;;5.13;3.83;;;13.00;99.90;;;;;;5068613;28;20893;-71
2022/10/19 06:36:59;;;;;;;3.75;3.45;;;13.00;99.90;;;;;;5065106;28;20214;-72
2022/10/19 06:39:26;;;;;;;3.78;3.47;;;13.00;99.90;;;;;;5064684;28;20190;-72
2022/10/19 06:41:53;;;;;;;4.20;3.80;;;13.00;99.90;;;;;;5060090;28;20202;-72
2022/10/19 06:44:21;;;;;;;3.90;3.60;;;13.00;99.90;;;;;;5064038;28;20186;-72
2022/10/19 06:46:48;;;;;;;5.50;3.92;;;13.00;99.90;;;;;;5062459;28;20692;-73
2022/10/19 06:49:17;;;;;;;3.97;3.45;;;13.00;99.90;;;;;;5064965;28;20202;-72
2022/10/19 06:51:44;;;;;;;3.92;3.63;;;13.10;99.90;;;;;;5063853;28;20224;-71
2022/10/19 06:54:11;;;;;;;4.18;3.38;;;13.10;99.90;;;;;;5063720;28;20214;-72
2022/10/19 06:56:38;;;;;;;7.20;3.95;;;13.40;99.90;;;;;;5062939;28;20723;-72
2022/10/19 06:59:05;;;;;;;4.05;3.65;;;14.20;99.90;;;;;;5062682;28;20210;-72
2022/10/19 07:01:32;;;;;;;5.25;3.95;;;15.20;99.90;;;;;;5063156;28;20226;-72
2022/10/19 07:03:59;;;;;;;4.15;3.58;;;16.00;99.90;;;;;;5062933;28;20202;-72
2022/10/19 07:06:28;;;;;;;6.70;4.05;;;16.80;99.90;;;;;;5059517;28;20214;-71
2022/10/19 07:08:55;;;;;;;4.47;4.07;;;17.40;99.90;;;;;;5063277;28;20291;-72
2022/10/19 07:11:22;;;;;;;5.60;3.95;;;18.00;99.90;;;;;;5062162;28;20228;-72
2022/10/19 07:13:52;;;;;;;4.75;4.10;;;18.50;99.90;;;;;;5064187;28;20693;-72
2022/10/19 07:16:19;;;;;;;5.10;4.18;;;19.00;99.90;;;;;;5060330;28;20218;-72
2022/10/19 07:18:47;;;;;;;5.43;3.90;;;19.30;99.90;;;;;;5061870;28;20202;-72
2022/10/19 07:21:16;;;;;;;7.35;4.07;;;19.60;99.90;;;;;;5064369;28;20210;-72
2022/10/19 07:23:46;;;;;;;6.53;4.63;;;19.90;99.90;;;;;;5066454;28;20191;-72
2022/10/19 07:26:15;;;;;;;5.13;4.45;;;20.20;99.90;;;;;;5064699;28;20252;-72
2022/10/19 07:28:45;;;;;;;9.90;4.57;;;20.40;99.90;;;;;;5064950;28;20707;-72
2022/10/19 07:31:14;;;;;;;6.47;4.50;;;20.50;99.90;;;;;;5064034;28;20655;-72
2022/10/19 07:33:41;;;;;;;4.88;4.28;;;20.70;99.90;;;;;;5062110;28;20214;-72
2022/10/19 07:36:10;;;;;;;5.95;4.63;;;21.10;99.90;;;;;;5062704;28;20237;-74
2022/10/19 07:38:37;;;;;;;5.43;4.68;;;21.20;99.90;;;;;;5062517;28;20195;-73
2022/10/19 07:41:09;;;;;;;5.57;4.30;;;21.30;99.90;;;;;;5065509;28;20787;-72
2022/10/19 07:43:36;;;;;;;4.80;4.25;;;21.20;99.90;;;;;;5060840;28;20854;-72
2022/10/19 07:46:06;;;;;;;6.18;4.38;;;21.20;99.90;;;;;;5064876;28;20246;-72
2022/10/19 07:48:34;;;;;;;5.32;4.38;;;21.20;99.90;;;;;;5066662;28;20226;-73
2022/10/19 07:51:02;;;;;;;5.57;4.13;;;21.50;99.90;;;;;;5066204;28;20660;-71
2022/10/19 07:53:29;;;;;;;5.28;4.30;;;21.70;99.90;;;;;;5067184;28;20233;-72
2022/10/19 07:56:02;;;;;;;7.57;4.85;;;21.90;99.90;;;;;;5066108;28;20226;-73
2022/10/19 07:58:31;;;;;;;7.60;5.13;;;21.90;99.90;;;;;;5057010;28;20723;-74
2022/10/19 08:01:00;;;;;;;5.50;4.65;;;21.80;99.90;;;;;;5066738;28;20268;-73
2022/10/19 08:03:27;;;;;;;6.25;4.55;;;21.90;99.90;;;;;;5065322;28;20209;-72
2022/10/19 08:05:59;;;;;;;6.25;4.60;;;22.00;99.90;;;;;;5065958;28;20222;-73
2022/10/19 08:08:26;;;;;;;7.82;4.97;;;22.20;99.90;;;;;;5084719;22;20254;-72
2022/10/19 08:10:54;;;;;;;5.70;4.45;;;22.10;99.90;;;;;;5063782;28;20226;-71
2022/10/19 08:13:21;;;;;;;6.95;4.70;;;22.10;99.90;;;;;;5065488;28;20198;-71
2022/10/19 08:15:50;;;;;;;5.28;4.40;;;22.20;99.90;;;;;;5063696;28;20618;-71
2022/10/19 08:18:18;;;;;;;5.97;5.38;;;22.40;99.90;;;;;;5066930;28;20199;-71
2022/10/19 08:20:45;;;;;;;6.45;5.03;;;22.60;99.90;;;;;;5065065;28;20256;-71
2022/10/19 08:23:12;;;;;;;5.47;4.78;;;22.80;99.90;;;;;;5060918;28;20202;-71
2022/10/19 08:25:39;;;;;;;6.30;5.15;;;22.80;99.90;;;;;;5059833;28;20230;-72
2022/10/19 08:28:07;;;;;;;7.75;5.03;;;22.90;99.90;;;;;;5062235;28;20813;-72
2022/10/19 08:30:35;;;;;;;4.60;4.18;;;23.10;99.90;;;;;;5064349;28;20229;-71
2022/10/19 08:33:07;;;;;;;6.00;5.07;;;23.10;99.90;;;;;;5059545;28;20256;-72
2022/10/19 08:35:35;;;;;;;6.50;4.97;;;23.20;99.90;;;;;;5064040;28;20226;-71
2022/10/19 08:38:02;;;;;;;5.13;4.30;;;23.40;99.90;;;;;;5061511;28;20213;-72
2022/10/19 08:40:31;;;;;;;8.55;4.22;;;23.40;99.90;;;;;;5057130;28;20260;-72
2022/10/19 08:43:04;;;;;;;7.25;4.45;;;23.40;99.90;;;;;;5060843;28;20213;-72
2022/10/19 08:45:39;;;;;;;10.07;4.32;;;23.30;99.90;;;;;;5059838;28;20309;-72
2022/10/19 08:48:24;;;;;;;7.75;5.53;;;23.50;99.90;;;;;;5055955;28;21580;-71
2022/10/19 08:50:53;;;;;;;6.20;4.10;;;23.50;99.90;;;;;;5058203;28;20221;-72
2022/10/19 08:53:29;;;;;;;6.50;4.50;;;23.50;99.90;;;;;;5065317;28;20218;-72
2022/10/19 08:56:10;;;;;;;5.85;4.47;;;23.60;99.90;;;;;;5057393;28;20229;-72
2022/10/19 08:58:56;;;;;;;8.50;4.65;;;23.70;99.90;;;;;;5067791;28;20615;-72
2022/10/19 09:01:37;;;;;;;6.05;4.22;;;23.70;99.90;;;;;;5062527;28;20233;-73
2022/10/19 09:04:12;;;;;;;8.13;4.47;;;23.60;99.90;;;;;;5065239;28;20190;-72
2022/10/19 09:06:49;;;;;;;6.53;4.28;;;23.90;99.90;;;;;;5065427;28;20220;-72
2022/10/19 09:09:18;;;;;;;6.15;4.40;;;24.20;99.90;;;;;;5059705;28;20687;-72
2022/10/19 09:11:50;;;;;;;4.45;3.55;;;24.20;99.90;;;;;;5060422;28;20215;-72
2022/10/19 09:14:22;;;;;;;5.85;3.95;;;24.20;99.90;;;;;;5060036;28;20745;-72
2022/10/19 09:16:50;;;;;;;7.30;4.47;;;24.00;99.90;;;;;;5060720;28;20226;-72
2022/10/19 09:19:24;;;;;;;6.13;3.70;;;23.80;99.90;;;;;;5060813;28;20198;-74
2022/10/19 09:21:55;;;;;;;5.78;3.85;;;24.00;99.90;;;;;;5056211;28;20294;-72
2022/10/19 09:24:36;;;;;;;5.57;4.05;;;24.00;99.90;;;;;;5060895;28;20196;-74
2022/10/19 09:27:03;;;;;;;4.35;3.92;;;24.10;99.90;;;;;;5058535;28;20697;-72
2022/10/19 09:29:37;;;;;;;6.75;3.72;;;24.00;99.90;;;;;;5062529;28;20241;-73
2022/10/19 09:32:12;;;;;;;6.97;4.30;;;24.20;99.90;;;;;;5060011;28;20563;-72
2022/10/19 09:34:44;;;;;;;4.63;3.80;;;24.20;99.90;;;;;;5063479;28;20224;-72
2022/10/19 09:37:12;;;;;;;4.63;3.45;;;24.30;99.90;;;;;;5060657;28;20198;-72
2022/10/19 09:39:40;;;;;;;5.00;4.15;;;24.30;99.90;;;;;;5062551;28;20510;-72
2022/10/19 09:42:17;;;;;;;5.90;3.88;;;24.30;99.90;;;;;;5143124;22;20230;-74
2022/10/19 09:44:47;;;;;;;5.22;3.63;;;24.50;99.90;;;;;;5074562;28;20541;-74
2022/10/19 09:47:31;;;;;;;5.00;4.05;;;24.60;99.90;;;;;;5078426;28;20269;-75
2022/10/19 09:50:20;;;;;;;6.88;4.25;;;24.60;99.90;;;;;;5076298;28;20220;-75
2022/10/19 09:52:48;;;;;;;5.60;3.72;;;24.50;99.90;;;;;;5077474;28;20745;-74
2022/10/19 09:55:25;;;;;;;8.27;4.10;;;24.80;99.90;;;;;;5078758;28;20275;-74
2022/10/19 09:58:00;;;;;;;8.05;4.65;;;24.80;99.90;;;;;;5076200;28;20636;-74
2022/10/19 10:00:34;;;;;;;8.30;4.15;;;24.90;99.90;;;;;;5082262;28;20594;-74
2022/10/19 10:03:02;;;;;;;5.00;3.70;;;24.80;99.90;;;;;;5077456;28;20213;-77
2022/10/19 10:05:36;;;;;;;4.13;3.53;;;24.50;99.90;;;;;;5075815;28;20221;-74
2022/10/19 10:08:05;;;;;;;6.43;4.15;;;24.50;99.90;;;;;;5076913;28;20297;-74
2022/10/19 10:10:40;;;;;;;6.45;3.55;;;24.70;99.90;;;;;;5081366;28;20221;-74
2022/10/19 10:13:17;;;;;;;7.28;4.03;;;24.80;99.90;;;;;;5085271;28;20824;-75
2022/10/19 10:15:47;;;;;;;5.25;3.53;;;24.60;99.90;;;;;;5078803;28;20213;-75
2022/10/19 10:18:17;;;;;;;5.18;3.50;;;24.70;99.90;;;;;;5083999;28;20198;-75
2022/10/19 10:21:01;;;;;;;6.15;3.88;;;24.70;99.90;;;;;;5078871;28;20304;-75
2022/10/19 10:23:34;;;;;;;4.93;3.90;;;24.50;99.90;;;;;;5078550;28;20209;-75
2022/10/19 10:26:03;;;;;;;6.28;3.85;;;24.30;99.90;;;;;;5077556;28;20225;-75
2022/10/19 10:28:31;;;;;;;4.32;3.70;;;24.50;99.90;;;;;;5082974;28;20430;-77
2022/10/19 10:31:05;;;;;;;6.32;3.58;;;24.60;99.90;;;;;;5079818;28;20224;-75
2022/10/19 10:33:37;;;;;;;7.70;3.40;;;24.60;99.90;;;;;;5081872;28;20229;-75
2022/10/19 10:36:09;;;;;;;8.02;3.60;;;24.70;99.90;;;;;;5077090;28;20221;-75
2022/10/19 10:38:40;;;;;;;4.78;3.55;;;24.80;99.90;;;;;;5081727;28;20201;-75
2022/10/19 10:41:14;;;;;;;4.47;4.00;;;24.90;99.90;;;;;;5081497;28;20232;-75
2022/10/19 10:43:51;;;;;;;6.40;3.83;;;25.10;99.90;;;;;;5077865;28;20233;-75
2022/10/19 10:46:25;;;;;;;5.10;4.07;;;25.20;99.90;;;;;;5090726;28;20339;-75
2022/10/19 10:48:55;;;;;;;6.90;3.40;;;25.00;99.90;;;;;;5071561;28;20210;-74
2022/10/19 10:51:32;;;;;;;5.93;3.42;;;24.90;99.90;;;;;;5073213;28;20218;-74
2022/10/19 10:54:16;;;;;;;4.22;3.47;;;25.10;99.90;;;;;;5073874;28;20217;-75
2022/10/19 10:56:44;;;;;;;4.38;3.75;;;25.30;99.90;;;;;;5080379;28;20302;-75
2022/10/19 10:59:18;;;;;;;3.17;2.83;;;25.40;99.90;;;;;;5079406;28;20218;-75
2022/10/19 11:01:53;;;;;;;6.07;4.20;;;25.60;99.90;;;;;;5083042;28;20228;-74
2022/10/19 11:04:26;;;;;;;6.20;3.47;;;25.70;99.90;;;;;;5083424;28;20659;-75
2022/10/19 11:06:59;;;;;;;6.68;3.80;;;25.80;99.90;;;;;;5081710;28;20266;-76
2022/10/19 11:09:33;;;;;;;4.35;3.50;;;25.80;99.90;;;;;;5083511;28;20663;-75
2022/10/19 11:12:04;;;;;;;6.50;3.92;;;25.90;99.90;;;;;;5083211;28;20259;-75
2022/10/19 11:14:39;;;;;;;4.18;2.92;;;26.00;99.90;;;;;;5077683;28;20217;-74
2022/10/19 11:17:12;;;;;;;6.53;3.90;;;26.00;99.90;;;;;;5082252;28;20565;-77
2022/10/19 11:19:43;;;;;;;6.57;3.70;;;25.80;99.90;;;;;;5078387;28;20190;-78
2022/10/19 11:22:20;;;;;;;4.07;3.20;;;25.60;99.90;;;;;;5080552;28;20210;-77
2022/10/19 11:25:01;;;;;;;4.30;3.33;;;25.60;99.90;;;;;;5080884;28;20232;-76
2022/10/19 11:27:40;;;;;;;5.32;3.28;;;25.50;99.90;;;;;;5077977;28;20190;-75
2022/10/19 11:30:13;;;;;;;5.63;2.80;;;25.50;99.90;;;;;;5079795;28;20229;-75
2022/10/19 11:32:58;;;;;;;4.70;3.35;;;25.50;99.90;;;;;;5079783;28;20256;-75
2022/10/19 11:35:45;;;;;;;5.15;3.15;;;25.60;99.90;;;;;;5082279;28;20248;-74
2022/10/19 11:38:40;;;;;;;6.40;3.60;;;25.60;99.90;;;;;;5066285;28;20201;-75
2022/10/19 11:41:17;;;;;;;4.15;2.95;;;25.60;99.90;;;;;;5080778;28;20248;-73
2022/10/19 11:43:54;;;;;;;4.88;3.03;;;25.80;99.90;;;;;;5082058;28;20274;-73
2022/10/19 11:46:26;;;;;;;5.82;3.20;;;25.90;99.90;;;;;;5079661;28;20841;-72
2022/10/19 11:49:12;;;;;;;5.00;2.83;;;25.80;99.90;;;;;;5082132;28;20209;-73
2022/10/19 11:51:48;;;;;;;5.60;2.95;;;25.80;99.90;;;;;;5081422;28;20221;-73
2022/10/19 11:54:45;;;;;;;3.28;2.42;;;25.70;99.90;;;;;;5081626;28;20201;-72
2022/10/19 11:57:16;;;;;;;5.43;2.90;;;25.80;99.90;;;;;;5080556;28;20674;-72
2022/10/19 11:59:57;;;;;;;6.05;2.65;;;25.80;99.90;;;;;;5084083;28;20233;-73
2022/10/19 12:02:51;;;;;;;5.55;3.08;;;25.60;99.90;;;;;;5079176;28;20220;-73
2022/10/19 12:05:23;;;;;;;3.63;2.50;;;25.50;99.90;;;;;;5081341;28;20221;-73
2022/10/19 12:08:07;;;;;;;4.53;2.83;;;25.60;99.90;;;;;;5074747;28;20699;-73
2022/10/19 12:10:43;;;;;;;4.05;2.90;;;25.80;99.90;;;;;;5077721;28;20287;-73
2022/10/19 12:13:16;;;;;;;5.15;2.90;;;25.90;99.90;;;;;;5082277;28;20213;-73
2022/10/19 12:15:47;;;;;;;7.75;3.67;;;25.90;99.90;;;;;;5080580;28;20225;-72
2022/10/19 12:18:22;;;;;;;3.63;2.85;;;25.90;99.90;;;;;;5081350;28;20195;-72
2022/10/19 12:20:52;;;;;;;4.60;2.92;;;25.90;99.90;;;;;;5080355;28;20701;-73
2022/10/19 12:23:28;;;;;;;4.65;2.40;;;25.60;99.90;;;;;;5079946;28;20223;-73
2022/10/19 12:26:05;;;;;;;5.05;2.70;;;25.50;99.90;;;;;;5079371;28;20624;-72
2022/10/19 12:28:35;;;;;;;3.90;2.60;;;25.50;99.90;;;;;;5079707;28;20573;-72
2022/10/19 12:31:04;;;;;;;2.60;2.35;;;25.50;99.90;;;;;;5081609;28;20229;-72
2022/10/19 12:33:45;;;;;;;4.60;2.75;;;25.60;99.90;;;;;;5081145;28;20225;-74
2022/10/19 12:36:23;;;;;;;4.07;2.80;;;25.50;99.90;;;;;;5082541;28;20308;-72
2022/10/19 12:39:00;;;;;;;5.43;2.67;;;25.50;99.90;;;;;;5080814;28;20197;-72
2022/10/19 12:41:36;;;;;;;2.97;2.40;;;25.50;99.90;;;;;;5079779;28;20648;-72
2022/10/19 12:44:31;;;;;;;4.93;2.72;;;25.70;99.90;;;;;;5079805;28;20553;-72
2022/10/19 12:47:02;;;;;;;2.83;2.00;;;25.90;99.90;;;;;;5055707;28;20228;-73
2022/10/19 12:49:44;;;;;;;4.30;2.47;;;25.90;99.90;;;;;;5085310;28;20243;-73
2022/10/19 12:52:13;;;;;;;5.57;2.60;;;25.90;99.90;;;;;;5085155;28;20217;-73
2022/10/19 12:54:42;;;;;;;3.33;2.40;;;25.70;99.90;;;;;;5077266;28;20616;-73
2022/10/19 12:57:27;;;;;;;3.45;2.55;;;25.50;99.90;;;;;;5079272;28;20191;-73
2022/10/19 13:00:01;;;;;;;4.93;2.55;;;25.40;99.90;;;;;;5079236;28;20229;-73
2022/10/19 13:02:32;;;;;;;3.58;2.65;;;25.50;99.90;;;;;;5082215;28;20229;-73
2022/10/19 13:05:00;;;;;;;2.95;2.03;;;25.60;99.90;;;;;;5075762;28;20228;-73
2022/10/19 13:07:34;;;;;;;5.72;2.45;;;25.60;99.90;;;;;;5078608;28;20204;-72